Time;durP1;ratioP1;P1;durP2;ratioP2;P2;SDS_P1;SDS_P2;PMS_P1;PMS_P2;Temp;Humidity;BMP_temperature;BMP_pressure;BME280_temperature;BME280_humidity;BME280_pressure;Samples;Min_cycle;Max_cycle;Signal;HPM_P1;HPM_P2
2024/01/15 00:00:45;;;;;;;24.45;10.50;;;;;;;;;;5065674;28;20470;-79
2024/01/15 00:03:11;;;;;;;28.33;9.63;;;;;;;;;;5084624;28;20028;-79
2024/01/15 00:05:37;;;;;;;23.67;8.50;;;;;;;;;;5068977;28;20054;-79
2024/01/15 00:08:03;;;;;;;22.02;10.13;;;;;;;;;;5076801;28;20052;-81
2024/01/15 00:10:29;;;;;;;39.15;14.13;;;;;;;;;;5067612;28;20331;-80
2024/01/15 00:12:55;;;;;;;31.73;12.57;;;;;;;;;;5066662;28;20028;-80
2024/01/15 00:15:22;;;;;;;23.40;10.40;;;;;;;;;;5080513;28;20474;-80
2024/01/15 00:17:47;;;;;;;30.30;9.45;;;;;;;;;;5099056;28;20016;-80
2024/01/15 00:20:13;;;;;;;27.05;11.32;;;;;;;;;;5099016;28;20037;-80
2024/01/15 00:22:40;;;;;;;25.65;11.00;;;;;;;;;;5082998;28;20020;-80
2024/01/15 00:25:06;;;;;;;35.40;9.70;;;;;;;;;;5067000;28;20039;-80
2024/01/15 00:27:32;;;;;;;27.05;10.90;;;;;;;;;;5079925;28;20020;-80
2024/01/15 00:29:58;;;;;;;24.40;13.43;;;;;;;;;;5083747;28;20028;-80
2024/01/15 00:32:24;;;;;;;36.30;12.85;;;;;;;;;;5080603;28;20252;-81
2024/01/15 00:34:50;;;;;;;21.85;10.13;;;;;;;;;;5078089;28;20036;-80
2024/01/15 00:37:16;;;;;;;30.30;11.30;;;;;;;;;;5066347;28;20054;-80
2024/01/15 00:39:43;;;;;;;31.80;10.43;;;;;;;;;;5081367;28;20028;-80
2024/01/15 00:42:09;;;;;;;31.85;8.98;;;;;;;;;;5060673;28;20105;-81
2024/01/15 00:44:35;;;;;;;34.15;11.43;;;;;;;;;;5060863;28;20028;-80
2024/01/15 00:47:03;;;;;;;26.42;10.23;;;;;;;;;;5083600;28;20494;-80
2024/01/15 00:49:29;;;;;;;28.13;11.50;;;;;;;;;;5060234;28;20025;-81
2024/01/15 00:51:56;;;;;;;30.00;11.00;;;;;;;;;;5083792;28;20032;-80
2024/01/15 00:54:22;;;;;;;32.20;9.50;;;;;;;;;;5082146;28;20481;-80
2024/01/15 00:56:48;;;;;;;34.45;10.45;;;;;;;;;;5081815;28;20111;-80
2024/01/15 00:59:14;;;;;;;33.40;11.57;;;;;;;;;;5079925;28;20027;-80
2024/01/15 01:01:42;;;;;;;23.25;9.02;;;;;;;;;;5085974;28;20070;-80
2024/01/15 01:04:08;;;;;;;30.13;10.75;;;;;;;;;;5082100;28;20016;-80
2024/01/15 01:06:34;;;;;;;18.38;8.85;;;;;;;;;;5066012;28;20242;-80
2024/01/15 01:09:01;;;;;;;28.55;10.43;;;;;;;;;;5046737;28;20123;-80
2024/01/15 01:11:27;;;;;;;21.58;9.02;;;;;;;;;;5084876;28;20419;-80
2024/01/15 01:13:52;;;;;;;26.92;11.13;;;;;;;;;;5081988;28;20024;-80
2024/01/15 01:16:18;;;;;;;33.67;10.10;;;;;;;;;;5063212;28;20569;-80
2024/01/15 01:18:45;;;;;;;30.02;9.48;;;;;;;;;;5081809;28;20414;-80
2024/01/15 01:21:12;;;;;;;18.98;8.73;;;;;;;;;;5080916;28;20024;-80
2024/01/15 01:23:38;;;;;;;32.92;11.25;;;;;;;;;;5063771;28;20028;-80
2024/01/15 01:26:04;;;;;;;30.35;11.27;;;;;;;;;;5082772;28;20055;-80
2024/01/15 01:28:30;;;;;;;26.30;8.80;;;;;;;;;;5078373;28;20103;-80
2024/01/15 01:30:56;;;;;;;29.10;11.48;;;;;;;;;;5080830;28;20027;-81
2024/01/15 01:33:22;;;;;;;32.88;10.10;;;;;;;;;;5062511;28;20039;-80
2024/01/15 01:35:48;;;;;;;29.45;10.60;;;;;;;;;;5067166;28;20086;-80
2024/01/15 01:38:14;;;;;;;33.70;12.57;;;;;;;;;;5085593;28;20020;-80
2024/01/15 01:40:40;;;;;;;34.10;11.93;;;;;;;;;;5087596;28;20024;-80
2024/01/15 01:43:06;;;;;;;24.73;10.32;;;;;;;;;;5087081;28;20111;-80
2024/01/15 01:45:32;;;;;;;32.75;10.82;;;;;;;;;;5088725;28;20102;-80
2024/01/15 01:47:58;;;;;;;30.00;11.93;;;;;;;;;;5063317;28;20050;-80
2024/01/15 01:50:24;;;;;;;31.02;12.05;;;;;;;;;;5092277;28;20024;-80
2024/01/15 01:52:50;;;;;;;19.20;8.95;;;;;;;;;;5079858;28;20375;-80
2024/01/15 01:55:17;;;;;;;38.20;12.70;;;;;;;;;;5086802;28;20020;-80
2024/01/15 01:57:43;;;;;;;39.28;10.57;;;;;;;;;;5085043;28;20073;-80
2024/01/15 02:00:12;;;;;;;44.72;10.95;;;;;;;;;;5062322;28;20051;-80
2024/01/15 02:02:38;;;;;;;27.80;8.35;;;;;;;;;;5065693;28;20050;-80
2024/01/15 02:05:05;;;;;;;39.40;12.30;;;;;;;;;;5081581;28;20479;-80
2024/01/15 02:07:31;;;;;;;23.50;9.38;;;;;;;;;;5081913;28;20029;-80
2024/01/15 02:09:57;;;;;;;22.83;8.65;;;;;;;;;;5068945;28;20111;-80
2024/01/15 02:12:23;;;;;;;29.42;12.88;;;;;;;;;;5085179;28;20107;-80
2024/01/15 02:14:49;;;;;;;21.63;8.88;;;;;;;;;;5069339;28;20032;-80
2024/01/15 02:17:15;;;;;;;24.60;8.23;;;;;;;;;;5084793;28;20028;-80
2024/01/15 02:19:41;;;;;;;30.77;8.70;;;;;;;;;;5090654;28;20024;-81
2024/01/15 02:22:07;;;;;;;24.90;10.35;;;;;;;;;;5093420;28;20030;-80
2024/01/15 02:24:33;;;;;;;22.45;8.60;;;;;;;;;;5067267;28;20039;-80
2024/01/15 02:27:00;;;;;;;22.67;8.80;;;;;;;;;;5068100;28;21064;-80
2024/01/15 02:29:26;;;;;;;29.25;11.50;;;;;;;;;;5084448;28;20035;-80
2024/01/15 02:31:52;;;;;;;38.10;14.13;;;;;;;;;;5088128;28;20024;-80
2024/01/15 02:34:18;;;;;;;24.45;8.73;;;;;;;;;;5083793;28;20471;-80
2024/01/15 02:36:44;;;;;;;22.17;11.48;;;;;;;;;;5081484;28;20060;-80
2024/01/15 02:39:10;;;;;;;28.90;8.98;;;;;;;;;;5081740;28;20020;-80
2024/01/15 02:41:35;;;;;;;29.00;10.35;;;;;;;;;;5083240;28;20028;-80
2024/01/15 02:44:02;;;;;;;26.27;11.57;;;;;;;;;;5087424;28;20551;-80
2024/01/15 02:46:28;;;;;;;24.70;10.02;;;;;;;;;;5082990;28;20088;-80
2024/01/15 02:48:54;;;;;;;18.65;9.13;;;;;;;;;;5061396;28;20053;-79
2024/01/15 02:51:21;;;;;;;22.13;9.18;;;;;;;;;;5070951;28;20028;-80
2024/01/15 02:53:47;;;;;;;23.70;8.85;;;;;;;;;;5082906;28;20076;-79
2024/01/15 02:56:13;;;;;;;23.10;10.75;;;;;;;;;;5084303;28;20107;-79
2024/01/15 02:58:38;;;;;;;20.80;8.93;;;;;;;;;;5063181;28;20096;-80
2024/01/15 03:01:04;;;;;;;28.27;9.63;;;;;;;;;;5084682;28;20543;-80
2024/01/15 03:03:30;;;;;;;31.73;10.00;;;;;;;;;;5084536;28;20031;-79
2024/01/15 03:05:56;;;;;;;37.42;11.20;;;;;;;;;;5081798;28;20040;-80
2024/01/15 03:08:22;;;;;;;21.00;8.10;;;;;;;;;;5087642;28;20047;-80
2024/01/15 03:10:48;;;;;;;24.95;8.52;;;;;;;;;;5083392;28;20020;-80
2024/01/15 03:13:14;;;;;;;21.30;7.68;;;;;;;;;;5068107;28;20506;-80
2024/01/15 03:15:40;;;;;;;38.08;10.32;;;;;;;;;;5076996;28;20426;-80
2024/01/15 03:18:06;;;;;;;29.05;8.68;;;;;;;;;;5079263;28;20050;-80
2024/01/15 03:20:33;;;;;;;21.42;7.70;;;;;;;;;;5067436;28;20028;-80
2024/01/15 03:22:59;;;;;;;33.83;9.63;;;;;;;;;;5082433;28;20031;-80
2024/01/15 03:25:26;;;;;;;24.08;7.35;;;;;;;;;;5065073;28;20040;-80
2024/01/15 03:27:51;;;;;;;16.58;7.50;;;;;;;;;;5047770;28;20052;-80
2024/01/15 03:30:17;;;;;;;18.08;6.30;;;;;;;;;;5084212;28;20517;-80
2024/01/15 03:32:43;;;;;;;25.50;7.38;;;;;;;;;;5079900;28;20032;-80
2024/01/15 03:35:09;;;;;;;26.35;7.35;;;;;;;;;;5085528;28;20020;-80
2024/01/15 03:37:35;;;;;;;20.55;6.82;;;;;;;;;;5081845;28;20493;-80
2024/01/15 03:40:02;;;;;;;26.08;9.32;;;;;;;;;;5069851;28;20414;-80
2024/01/15 03:42:28;;;;;;;18.20;8.73;;;;;;;;;;5079555;28;20016;-80
2024/01/15 03:44:54;;;;;;;20.83;7.85;;;;;;;;;;5067925;28;20493;-80
2024/01/15 03:47:20;;;;;;;23.27;8.55;;;;;;;;;;5084870;28;20422;-80
2024/01/15 03:49:46;;;;;;;22.27;8.10;;;;;;;;;;5067138;28;20494;-80
2024/01/15 03:52:12;;;;;;;19.25;6.50;;;;;;;;;;5064945;28;20020;-80
2024/01/15 03:54:38;;;;;;;27.15;8.70;;;;;;;;;;5079358;28;20121;-80
2024/01/15 03:57:04;;;;;;;15.48;6.90;;;-2.00;99.90;;;;;;5081728;28;20032;-80
2024/01/15 03:59:30;;;;;;;16.23;6.25;;;;;;;;;;5079160;28;20024;-80
2024/01/15 04:01:56;;;;;;;15.13;7.07;;;;;;;;;;5067038;28;20039;-80
2024/01/15 04:04:22;;;;;;;19.00;7.93;;;;;;;;;;5083128;28;20039;-79
2024/01/15 04:06:48;;;;;;;17.60;8.13;;;;;;;;;;5067950;28;20165;-80
2024/01/15 04:09:14;;;;;;;18.15;7.57;;;;;;;;;;5076845;28;20027;-80
2024/01/15 04:11:40;;;;;;;27.27;6.95;;;;;;;;;;5081426;28;20020;-80
2024/01/15 04:14:06;;;;;;;16.13;5.40;;;;;;;;;;5067317;28;20027;-80
2024/01/15 04:16:32;;;;;;;15.25;6.10;;;;;;;;;;5082613;28;20036;-79
2024/01/15 04:18:58;;;;;;;17.85;8.32;;;;;;;;;;5075312;28;20028;-80
2024/01/15 04:21:24;;;;;;;15.50;6.82;;;;;;;;;;5070585;28;20024;-80
2024/01/15 04:23:50;;;;;;;16.30;6.63;;;;;;;;;;5083501;28;20035;-80
2024/01/15 04:26:16;;;;;;;21.60;6.90;;;;;;;;;;5085095;28;20040;-80
2024/01/15 04:28:42;;;;;;;22.52;7.90;;;;;;;;;;5065189;28;20550;-80
2024/01/15 04:31:08;;;;;;;22.08;9.25;;;;;;;;;;5080518;28;20044;-80
2024/01/15 04:33:34;;;;;;;20.05;6.88;;;;;;;;;;5065799;28;20088;-80
2024/01/15 04:36:05;;;;;;;19.02;7.88;;;;;;;;;;5079847;28;20031;-80
2024/01/15 04:38:32;;;;;;;17.83;6.40;;;;;;;;;;5083112;28;20360;-80
2024/01/15 04:40:58;;;;;;;21.85;6.85;;;;;;;;;;5076459;28;20382;-80
2024/01/15 04:43:23;;;;;;;12.25;5.30;;;-1.00;99.90;;;;;;5068126;28;20016;-80
2024/01/15 04:45:49;;;;;;;31.75;8.73;;;;;;;;;;5082241;28;20449;-80
2024/01/15 04:48:15;;;;;;;21.60;8.18;;;;;;;;;;5077211;28;20028;-79
2024/01/15 04:50:41;;;;;;;18.65;6.88;;;;;;;;;;5068170;28;20416;-80
2024/01/15 04:53:08;;;;;;;25.60;8.15;;;;;;;;;;5079919;28;20465;-79
2024/01/15 04:55:34;;;;;;;26.35;11.07;;;;;;;;;;5067447;28;20067;-79
2024/01/15 04:58:00;;;;;;;20.40;6.85;;;;;;;;;;5065720;28;20066;-79
2024/01/15 05:00:26;;;;;;;19.23;6.60;;;;;;;;;;5065027;28;20036;-79
2024/01/15 05:02:52;;;;;;;18.65;6.38;;;;;;;;;;5079279;28;20032;-79
2024/01/15 05:05:18;;;;;;;20.73;8.45;;;;;;;;;;5085388;28;20031;-79
2024/01/15 05:07:44;;;;;;;37.10;8.40;;;;;;;;;;5077485;28;20107;-79
2024/01/15 05:10:10;;;;;;;24.73;7.38;;;;;;;;;;5062869;28;20044;-80
2024/01/15 05:12:36;;;;;;;26.73;7.75;;;;;;;;;;5077472;28;20082;-80
2024/01/15 05:15:03;;;;;;;27.40;9.70;;;;;;;;;;5082601;28;20054;-80
2024/01/15 05:17:29;;;;;;;20.15;8.38;;;;;;;;;;5066309;28;20023;-79
2024/01/15 05:19:55;;;;;;;16.08;7.75;;;;;;;;;;5065417;28;20371;-80
2024/01/15 05:22:24;;;;;;;21.55;8.70;;;;;;;;;;5081926;28;20027;-80
2024/01/15 05:24:50;;;;;;;23.65;8.93;;;;;;;;;;5084433;28;20035;-80
2024/01/15 05:27:16;;;;;;;17.33;6.60;;;;;;;;;;5079300;28;20482;-80
2024/01/15 05:29:42;;;;;;;29.58;8.73;;;;;;;;;;5062899;28;20432;-80
2024/01/15 05:32:08;;;;;;;24.08;9.70;;;;;;;;;;5079951;28;20080;-81
2024/01/15 05:34:34;;;;;;;19.77;7.95;;;;;;;;;;5077381;28;20024;-81
2024/01/15 05:37:00;;;;;;;18.00;7.50;;;;;;;;;;5061080;28;20034;-81
2024/01/15 05:39:26;;;;;;;14.05;6.18;;;;;;;;;;5077340;28;20115;-81
2024/01/15 05:41:52;;;;;;;14.95;6.78;;;;;;;;;;5080003;28;20460;-81
2024/01/15 05:44:18;;;;;;;25.50;7.85;;;;;;;;;;5077436;28;20147;-81
2024/01/15 05:46:44;;;;;;;17.88;7.80;;;;;;;;;;5075755;28;20028;-80
2024/01/15 05:49:10;;;;;;;16.55;6.72;;;;;;;;;;5057942;28;20486;-80
2024/01/15 05:51:36;;;;;;;21.30;6.85;;;;;;;;;;5060853;28;20451;-80
2024/01/15 05:54:02;;;;;;;18.50;7.95;;;;;;;;;;5066281;28;20097;-80
2024/01/15 05:56:28;;;;;;;18.27;7.80;;;;;;;;;;5083766;28;20032;-80
2024/01/15 05:58:54;;;;;;;15.88;6.70;;;;;;;;;;5059392;28;20039;-80
2024/01/15 06:01:20;;;;;;;13.52;5.57;;;;;;;;;;5079647;28;20474;-80
2024/01/15 06:03:46;;;;;;;21.85;7.63;;;;;;;;;;5062737;28;20059;-80
2024/01/15 06:06:12;;;;;;;18.75;8.25;;;;;;;;;;5063218;28;20070;-80
2024/01/15 06:08:38;;;;;;;18.40;7.85;;;;;;;;;;5060847;28;20035;-80
2024/01/15 06:11:04;;;;;;;14.57;5.78;;;;;;;;;;5080501;28;20050;-80
2024/01/15 06:13:31;;;;;;;15.93;9.15;;;;;;;;;;5075724;28;20479;-80
2024/01/15 06:15:57;;;;;;;15.55;6.63;;;;;;;;;;5049162;28;20035;-81
2024/01/15 06:18:23;;;;;;;14.30;6.25;;;;;;;;;;5058856;28;20033;-80
2024/01/15 06:20:48;;;;;;;10.57;6.28;;;;;;;;;;5064544;28;20065;-80
2024/01/15 06:23:14;;;;;;;26.13;9.23;;;;;;;;;;5063758;28;20139;-81
2024/01/15 06:25:40;;;;;;;16.52;7.13;;;;;;;;;;5096736;28;20111;-80
2024/01/15 06:28:06;;;;;;;16.15;7.82;;;;;;;;;;5077007;28;20024;-81
2024/01/15 06:30:32;;;;;;;18.30;7.30;;;;;;;;;;5086209;28;20082;-81
2024/01/15 06:32:58;;;;;;;17.83;7.38;;;;;;;;;;5050536;28;20036;-81
2024/01/15 06:35:24;;;;;;;23.60;9.25;;;;;;;;;;5082615;28;20059;-81
2024/01/15 06:37:50;;;;;;;25.30;8.85;;;;;;;;;;5063198;28;21516;-81
2024/01/15 06:40:16;;;;;;;16.58;7.85;;;;;;;;;;5081539;28;20478;-81
2024/01/15 06:42:42;;;;;;;19.83;7.78;;;-1.10;99.90;;;;;;5085676;28;20456;-81
2024/01/15 06:45:08;;;;;;;14.50;6.75;;;;;;;;;;5072885;28;20086;-81
2024/01/15 06:47:34;;;;;;;19.48;7.78;;;;;;;;;;5081309;28;20543;-82
2024/01/15 06:50:00;;;;;;;16.38;6.93;;;;;;;;;;5077922;28;20032;-81
2024/01/15 06:52:26;;;;;;;13.50;6.47;;;;;;;;;;5076174;28;20021;-81
2024/01/15 06:54:53;;;;;;;37.30;8.05;;;;;;;;;;5066466;28;20406;-81
2024/01/15 06:57:20;;;;;;;14.57;6.63;;;;;;;;;;5085967;28;20065;-81
2024/01/15 06:59:46;;;;;;;21.30;7.57;;;;;;;;;;5088837;28;20024;-81
2024/01/15 07:02:12;;;;;;;17.33;6.57;;;;;;;;;;5066870;28;20371;-81
2024/01/15 07:04:38;;;;;;;20.00;8.52;;;;;;;;;;5084794;28;20107;-80
2024/01/15 07:07:04;;;;;;;19.17;8.93;;;;;;;;;;5059957;28;22601;-80
2024/01/15 07:09:30;;;;;;;21.30;8.30;;;;;;;;;;5067408;28;20071;-81
2024/01/15 07:11:57;;;;;;;17.27;7.65;;;;;;;;;;5066529;28;20032;-80
2024/01/15 07:14:23;;;;;;;24.83;6.90;;;;;;;;;;5086578;28;20032;-81
2024/01/15 07:16:49;;;;;;;35.20;8.27;;;;;;;;;;5061219;28;20032;-81
2024/01/15 07:19:15;;;;;;;13.77;7.35;;;;;;;;;;5056568;28;20039;-81
2024/01/15 07:21:42;;;;;;;18.35;7.28;;;;;;;;;;5074774;28;20048;-81
2024/01/15 07:24:09;;;;;;;23.10;7.85;;;;;;;;;;5080934;28;20028;-81
2024/01/15 07:26:35;;;;;;;20.30;7.65;;;;;;;;;;5062303;28;20062;-81
2024/01/15 07:29:01;;;;;;;17.95;7.07;;;;;;;;;;5062819;28;20036;-80
2024/01/15 07:31:27;;;;;;;21.83;7.45;;;;;;;;;;5078113;28;20035;-81
2024/01/15 07:33:53;;;;;;;17.98;8.00;;;;;;;;;;5083461;28;20100;-80
2024/01/15 07:36:19;;;;;;;17.50;7.05;;;;;;;;;;5058422;28;20020;-81
2024/01/15 07:38:45;;;;;;;20.85;7.25;;;;;;;;;;5060528;28;20066;-81
2024/01/15 07:41:11;;;;;;;24.17;7.32;;;;;;;;;;5075190;28;20495;-80
2024/01/15 07:43:38;;;;;;;13.10;5.53;;;;;;;;;;5083330;28;20024;-81
2024/01/15 07:46:04;;;;;;;17.35;6.65;;;;;;;;;;5082679;28;20254;-81
2024/01/15 07:48:30;;;;;;;23.23;8.55;;;;;;;;;;5065261;28;20571;-81
2024/01/15 07:50:56;;;;;;;15.95;5.75;;;;;;;;;;5082517;28;20046;-81
2024/01/15 07:53:22;;;;;;;17.15;7.03;;;;;;;;;;5077057;28;20506;-80
2024/01/15 07:55:48;;;;;;;14.65;7.60;;;;;;;;;;5084962;28;20647;-80
2024/01/15 07:58:14;;;;;;;13.80;6.65;;;;;;;;;;5060882;28;20028;-81
2024/01/15 08:00:40;;;;;;;18.10;7.30;;;;;;;;;;5066750;28;20042;-81
2024/01/15 08:03:06;;;;;;;13.55;5.10;;;;;;;;;;5082743;28;20032;-80
2024/01/15 08:05:32;;;;;;;13.82;6.93;;;;;;;;;;5065924;28;20186;-80
2024/01/15 08:07:58;;;;;;;10.60;5.25;;;;;;;;;;5057840;28;20119;-81
2024/01/15 08:10:24;;;;;;;17.90;6.38;;;;;;;;;;5085303;28;20581;-81
2024/01/15 08:12:50;;;;;;;18.02;8.35;;;;;;;;;;5082265;28;20394;-80
2024/01/15 08:15:17;;;;;;;14.80;5.35;;;;;;;;;;5063726;28;20028;-79
2024/01/15 08:17:43;;;;;;;15.00;5.93;;;;;;;;;;5079704;28;20020;-79
2024/01/15 08:20:10;;;;;;;16.80;6.35;;;;;;;;;;5041414;28;20110;-81
2024/01/15 08:22:36;;;;;;;23.30;8.35;;;;;;;;;;5071536;28;20026;-80
2024/01/15 08:25:03;;;;;;;17.90;7.00;;;;;;;;;;5069388;28;20024;-81
2024/01/15 08:27:29;;;;;;;14.90;5.78;;;;;;;;;;5081515;28;20069;-82
2024/01/15 08:29:55;;;;;;;7.20;4.15;;;;;;;;;;5094687;28;20032;-82
2024/01/15 08:32:21;;;;;;;19.23;5.78;;;;;;;;;;5085744;28;20020;-80
2024/01/15 08:34:52;;;;;;;15.38;5.78;;;;;;;;;;5061737;28;20017;-81
2024/01/15 08:37:18;;;;;;;16.65;5.25;;;;;;;;;;5071145;28;20032;-80
2024/01/15 08:39:43;;;;;;;15.32;7.63;;;;;;;;;;5061652;28;20023;-81
2024/01/15 08:42:10;;;;;;;23.65;8.57;;;;;;;;;;5082106;28;20725;-81
2024/01/15 08:44:36;;;;;;;15.40;5.95;;;;;;;;;;5068887;28;20027;-80
2024/01/15 08:47:02;;;;;;;23.77;6.88;;;;;;;;;;5085847;28;20078;-80
2024/01/15 08:49:28;;;;;;;17.70;7.18;;;;;;;;;;5082294;28;20039;-80
2024/01/15 08:51:55;;;;;;;25.58;6.70;;;;;;;;;;5081725;28;20222;-81
2024/01/15 08:54:22;;;;;;;15.73;6.07;;;;;;;;;;5082759;28;20024;-80
2024/01/15 08:56:48;;;;;;;18.20;8.05;;;;;;;;;;5087727;28;20382;-80
2024/01/15 08:59:14;;;;;;;23.27;8.68;;;;;;;;;;5040121;28;20024;-80
2024/01/15 09:01:40;;;;;;;16.13;7.32;;;;;;;;;;5062221;28;20039;-80
2024/01/15 09:04:06;;;;;;;14.85;6.25;;;;;;;;;;5079851;28;20073;-80
2024/01/15 09:06:33;;;;;;;18.52;7.70;;;;;;;;;;5080202;28;20027;-81
2024/01/15 09:09:00;;;;;;;19.80;7.90;;;;;;;;;;5080878;28;20309;-81
2024/01/15 09:11:26;;;;;;;49.78;16.40;;;;;;;;;;5081227;28;20039;-80
2024/01/15 09:13:53;;;;;;;13.57;6.35;;;;;;;;;;5080077;28;20028;-81
2024/01/15 09:16:19;;;;;;;9.68;5.70;;;;;;;;;;5057704;28;20035;-80
2024/01/15 09:18:46;;;;;;;14.90;5.40;;;;;;;;;;5055398;28;20019;-80
2024/01/15 09:21:12;;;;;;;16.08;6.05;;;;;;;;;;5054548;28;20031;-81
2024/01/15 09:23:38;;;;;;;14.13;5.90;;;;;;;;;;5049453;28;20086;-82
2024/01/15 09:26:04;;;;;;;16.38;5.97;;;;;;;;;;5049953;28;20643;-80
2024/01/15 09:28:30;;;;;;;19.50;8.23;;;;;;;;;;5054386;28;20438;-82
2024/01/15 09:30:56;;;;;;;16.98;7.30;;;;;;;;;;5038124;28;20028;-81
2024/01/15 09:33:22;;;;;;;19.70;6.72;;;;;;;;;;5072556;28;20054;-80
2024/01/15 09:35:48;;;;;;;16.77;5.82;;;;;;;;;;5063011;28;20035;-81
2024/01/15 09:38:15;;;;;;;19.10;7.20;;;;;;;;;;5078476;28;20028;-80
2024/01/15 09:40:43;;;;;;;22.83;5.78;;;;;;;;;;5075111;28;20082;-81
2024/01/15 09:43:09;;;;;;;18.73;5.32;;;;;;;;;;5056440;28;20059;-81
2024/01/15 09:45:35;;;;;;;16.30;6.45;;;;;;;;;;5067008;28;20040;-81
2024/01/15 09:48:01;;;;;;;13.20;4.97;;;;;;;;;;5080515;28;20035;-82
2024/01/15 09:50:27;;;;;;;18.85;6.78;;;;;;;;;;5073361;28;20039;-81
2024/01/15 09:52:54;;;;;;;22.30;7.50;;;;;;;;;;5061827;28;20201;-80
2024/01/15 09:55:20;;;;;;;16.25;5.93;;;;;;;;;;5076833;28;20495;-81
2024/01/15 09:57:46;;;;;;;14.00;5.47;;;;;;;;;;5059060;28;20032;-81
2024/01/15 10:00:13;;;;;;;19.00;7.50;;;;;;;;;;5081638;28;20024;-81
2024/01/15 10:02:39;;;;;;;21.20;7.80;;;;;;;;;;5064032;28;20130;-81
2024/01/15 10:05:06;;;;;;;18.23;6.68;;;;;;;;;;5080444;28;20021;-81
2024/01/15 10:07:34;;;;;;;13.68;5.05;;;;;;;;;;5071161;28;20505;-81
2024/01/15 10:10:00;;;;;;;20.63;7.03;;;;;;;;;;5075309;28;20039;-83
2024/01/15 10:12:30;;;;;;;18.17;7.70;;;;;;;;;;5060074;28;20032;-81
2024/01/15 10:14:59;;;;;;;16.10;6.60;;;;;;;;;;5061959;28;20017;-81
2024/01/15 10:17:28;;;;;;;14.00;7.00;;;;;;;;;;5081931;28;20016;-80
2024/01/15 10:19:54;;;;;;;21.73;6.72;;;;;;;;;;5071495;28;20387;-80
2024/01/15 10:22:20;;;;;;;16.50;5.97;;;;;;;;;;5085849;28;20027;-81
2024/01/15 10:24:48;;;;;;;17.00;6.53;;;;;;;;;;5081373;28;20115;-81
2024/01/15 10:27:13;;;;;;;20.33;6.20;;;;;;;;;;5087796;28;20095;-81
2024/01/15 10:29:41;;;;;;;24.65;8.85;;;;;;;;;;5069183;28;20028;-81
2024/01/15 10:32:08;;;;;;;14.38;6.65;;;;;;;;;;5083046;28;20028;-81
2024/01/15 10:34:38;;;;;;;13.15;5.10;;;;;;;;;;5100830;28;20242;-82
2024/01/15 10:37:05;;;;;;;14.50;5.28;;;;;;;;;;5093668;28;20032;-80
2024/01/15 10:39:31;;;;;;;16.38;7.00;;;;;;;;;;5065541;28;20032;-80
2024/01/15 10:41:57;;;;;;;16.23;6.95;;;;;;;;;;5074035;28;20028;-81
2024/01/15 10:44:23;;;;;;;11.52;6.50;;;;;;;;;;5075682;28;20174;-81
2024/01/15 10:46:49;;;;;;;17.17;7.75;;;;;;;;;;5062206;28;20147;-81
2024/01/15 10:49:18;;;;;;;13.60;6.93;;;;;;;;;;5082397;28;20147;-82
2024/01/15 10:51:44;;;;;;;13.52;6.35;;;;;;;;;;5081325;28;20024;-81
2024/01/15 10:54:11;;;;;;;20.30;7.32;;;;;;;;;;5080671;28;20502;-81
2024/01/15 10:56:37;;;;;;;25.73;7.47;;;;;;;;;;5077809;28;20101;-81
2024/01/15 10:59:04;;;;;;;11.77;4.63;;;0.80;99.90;;;;;;5066335;28;21005;-80
2024/01/15 11:01:31;;;;;;;13.00;5.55;;;;;;;;;;5085598;28;20028;-81
2024/01/15 11:03:57;;;;;;;13.52;5.53;;;;;;;;;;5063650;28;20070;-84
2024/01/15 11:06:24;;;;;;;18.15;6.68;;;;;;;;;;5070887;28;20045;-81
2024/01/15 11:08:51;;;;;;;13.00;5.75;;;;;;;;;;5078563;28;20028;-80
2024/01/15 11:11:17;;;;;;;18.75;6.05;;;;;;;;;;5084205;28;20032;-81
2024/01/15 11:13:44;;;;;;;13.75;5.93;;;;;;;;;;5068288;28;20024;-81
2024/01/15 11:16:14;;;;;;;14.20;5.18;;;0.90;99.90;;;;;;5067396;28;20099;-80
2024/01/15 11:18:41;;;;;;;17.63;5.75;;;;;;;;;;5074141;28;20011;-81
2024/01/15 11:21:16;;;;;;;12.75;5.03;;;;;;;;;;5084782;28;20104;-80
2024/01/15 11:23:49;;;;;;;9.35;4.68;;;;;;;;;;5063589;28;20110;-81
2024/01/15 11:26:15;;;;;;;;;;;;;;;;;;5085657;28;20056;-81
2024/01/15 11:28:48;;;;;;;10.30;4.28;;;;;;;;;;5087152;28;19966;-80
2024/01/15 11:31:15;;;;;;;;;;;0.80;99.90;;;;;;5089816;28;20085;-81
2024/01/15 11:33:59;;;;;;;12.07;3.72;;;;;;;;;;5068813;28;20478;-80
2024/01/15 11:36:55;;;;;;;16.13;4.68;;;;;;;;;;5082699;28;20123;-81
2024/01/15 11:39:27;;;;;;;7.97;4.28;;;;;;;;;;5072166;28;20403;-80
2024/01/15 11:41:57;;;;;;;8.77;4.53;;;;;;;;;;5081475;28;20020;-82
2024/01/15 11:44:23;;;;;;;14.60;3.72;;;;;;;;;;5061997;28;20515;-81
2024/01/15 11:46:55;;;;;;;12.38;4.22;;;;;;;;;;5086914;28;20510;-80
2024/01/15 11:49:31;;;;;;;12.98;5.13;;;;;;;;;;5067298;28;20063;-80
2024/01/15 11:51:58;;;;;;;7.97;4.15;;;;;;;;;;5063260;28;20953;-81
2024/01/15 11:54:24;;;;;;;10.40;4.70;;;;;;;;;;5063517;28;20024;-82
2024/01/15 11:56:50;;;;;;;10.15;5.25;;;;;;;;;;5065072;28;20039;-81
2024/01/15 11:59:16;;;;;;;10.98;5.47;;;;;;;;;;5079888;28;20031;-81
2024/01/15 12:01:42;;;;;;;18.33;5.03;;;;;;;;;;5082964;28;20040;-81
2024/01/15 12:04:09;;;;;;;9.93;4.53;;;;;;;;;;5062777;28;20077;-81
2024/01/15 12:06:35;;;;;;;10.85;4.30;;;;;;;;;;5073293;28;20043;-81
2024/01/15 12:09:08;;;;;;;9.45;4.78;;;1.00;99.90;;;;;;5062131;28;20369;-81
2024/01/15 12:11:37;;;;;;;8.27;3.65;;;;;;;;;;5065119;28;20498;-81
2024/01/15 12:14:03;;;;;;;10.20;3.40;;;;;;;;;;5078002;28;20133;-81
2024/01/15 12:16:28;;;;;;;10.52;4.43;;;;;;;;;;5060487;28;20585;-81
2024/01/15 12:18:54;;;;;;;9.80;3.63;;;;;;;;;;5064857;28;20028;-81
2024/01/15 12:21:20;;;;;;;7.57;3.92;;;;;;;;;;5062201;28;20028;-81
2024/01/15 12:23:48;;;;;;;10.95;4.07;;;;;;;;;;5077192;28;20112;-81
2024/01/15 12:26:14;;;;;;;8.60;4.03;;;;;;;;;;5079669;28;20046;-81
2024/01/15 12:28:40;;;;;;;7.53;3.80;;;;;;;;;;5082377;28;20055;-81
2024/01/15 12:31:06;;;;;;;7.70;3.75;;;;;;;;;;5080349;28;20055;-81
2024/01/15 12:33:33;;;;;;;9.13;4.15;;;;;;;;;;5082233;28;20024;-81
2024/01/15 12:35:59;;;;;;;7.55;3.70;;;;;;;;;;5080336;28;20060;-81
2024/01/15 12:38:25;;;;;;;6.05;3.22;;;;;;;;;;5060610;28;20071;-81
2024/01/15 12:40:51;;;;;;;16.63;4.53;;;;;;;;;;5080123;28;20279;-82
2024/01/15 12:43:18;;;;;;;11.38;4.72;;;;;;;;;;5087099;28;20024;-82
2024/01/15 12:45:43;;;;;;;13.75;4.35;;;;;;;;;;5083086;28;20245;-82
2024/01/15 12:48:09;;;;;;;8.32;3.85;;;;;;;;;;5060720;28;20549;-82
2024/01/15 12:50:37;;;;;;;10.15;4.50;;;;;;;;;;5087051;28;20024;-81
2024/01/15 12:53:03;;;;;;;6.80;3.67;;;;;;;;;;5059077;28;20409;-81
2024/01/15 12:55:29;;;;;;;9.45;5.00;;;;;;;;;;5082088;28;20032;-81
2024/01/15 12:57:55;;;;;;;8.27;3.53;;;;;;;;;;5073892;28;20383;-81
2024/01/15 13:00:21;;;;;;;7.28;3.17;;;;;;;;;;5081168;28;20448;-82
2024/01/15 13:02:49;;;;;;;8.70;3.58;;;;;;;;;;5080699;28;20035;-81
2024/01/15 13:05:17;;;;;;;7.65;3.65;;;;;;;;;;5050533;28;20187;-81
2024/01/15 13:07:43;;;;;;;9.43;3.95;;;;;;;;;;5080964;28;20093;-81
2024/01/15 13:10:09;;;;;;;8.77;3.83;;;;;;;;;;5055197;28;20031;-81
2024/01/15 13:12:35;;;;;;;8.57;4.07;;;;;;;;;;5061909;28;20463;-82
2024/01/15 13:15:04;;;;;;;11.40;4.10;;;;;;;;;;5082365;28;20530;-81
2024/01/15 13:17:30;;;;;;;7.93;3.80;;;;;;;;;;5061464;28;20028;-81
2024/01/15 13:19:56;;;;;;;9.88;4.40;;;;;;;;;;5061106;28;20051;-81
2024/01/15 13:22:22;;;;;;;11.35;5.05;;;;;;;;;;5082909;28;20298;-81
2024/01/15 13:24:48;;;;;;;10.95;3.80;;;;;;;;;;5072412;28;20166;-81
2024/01/15 13:27:14;;;;;;;13.45;4.30;;;;;;;;;;5060752;28;20032;-81
2024/01/15 13:29:40;;;;;;;9.35;5.32;;;;;;;;;;5084293;28;20028;-81
2024/01/15 13:32:06;;;;;;;7.38;2.88;;;;;;;;;;5064569;28;20059;-81
2024/01/15 13:34:32;;;;;;;9.00;4.05;;;;;;;;;;5084047;28;20039;-80
2024/01/15 13:36:58;;;;;;;7.78;3.42;;;;;;;;;;5067534;28;20101;-84
2024/01/15 13:39:24;;;;;;;8.45;3.80;;;;;;;;;;5081905;28;20028;-80
2024/01/15 13:41:50;;;;;;;9.35;4.57;;;;;;;;;;5062263;28;20046;-82
2024/01/15 13:44:16;;;;;;;8.50;3.45;;;;;;;;;;5057965;28;20487;-80
2024/01/15 13:46:42;;;;;;;6.60;3.63;;;;;;;;;;5065589;28;20414;-81
2024/01/15 13:49:09;;;;;;;7.45;3.28;;;;;;;;;;5078424;28;20028;-82
2024/01/15 13:51:36;;;;;;;12.95;4.18;;;;;;;;;;5060418;28;20024;-83
2024/01/15 13:54:04;;;;;;;8.27;3.97;;;;;;;;;;5060487;28;20024;-81
2024/01/15 13:56:32;;;;;;;10.02;5.40;;;;;;;;;;5080668;28;20020;-81
2024/01/15 13:58:58;;;;;;;6.22;3.50;;;;;;;;;;5081085;28;20074;-81
2024/01/15 14:01:24;;;;;;;8.43;3.88;;;;;;;;;;5082263;28;20027;-82
2024/01/15 14:03:50;;;;;;;9.00;4.38;;;;;;;;;;5084484;28;20059;-82
2024/01/15 14:06:16;;;;;;;8.00;3.70;;;;;;;;;;5065423;28;20064;-83
2024/01/15 14:08:42;;;;;;;6.82;3.47;;;;;;;;;;5083062;28;20032;-82
2024/01/15 14:11:10;;;;;;;6.38;4.00;;;;;;;;;;5081945;28;20081;-82
2024/01/15 14:13:35;;;;;;;6.53;3.20;;;;;;;;;;5085705;28;20039;-82
2024/01/15 14:16:01;;;;;;;6.20;3.28;;;;;;;;;;5084838;28;20395;-82
2024/01/15 14:18:28;;;;;;;7.47;3.30;;;;;;;;;;5064005;28;20460;-82
2024/01/15 14:20:54;;;;;;;8.27;3.63;;;;;;;;;;5082892;28;20024;-83
2024/01/15 14:23:20;;;;;;;11.00;4.15;;;;;;;;;;5082121;28;20027;-82